Time;durP1;ratioP1;P1;durP2;ratioP2;P2;SDS_P1;SDS_P2;PMS_P1;PMS_P2;Temp;Humidity;BMP_temperature;BMP_pressure;BME280_temperature;BME280_humidity;BME280_pressure;Samples;Min_cycle;Max_cycle;Signal;HPM_P1;HPM_P2
2023/08/26 00:01:06;;;;;;;18.05;10.82;;;;;;;;;;5022668;28;20041;-63
2023/08/26 00:03:32;;;;;;;17.08;9.60;;;;;;;;;;5022230;28;20037;-62
2023/08/26 00:05:59;;;;;;;14.90;9.18;;;;;;;;;;5019737;28;20070;-60
2023/08/26 00:08:26;;;;;;;18.08;9.50;;;;;;;;;;5021780;28;20041;-62
2023/08/26 00:10:52;;;;;;;15.05;9.25;;;;;;;;;;5022452;28;20045;-62
2023/08/26 00:13:19;;;;;;;15.82;9.60;;;;;;;;;;5022578;28;21169;-63
2023/08/26 00:15:45;;;;;;;17.75;9.55;;;;;;;;;;5021440;28;20104;-63
2023/08/26 00:18:12;;;;;;;16.20;9.57;;;;;;;;;;5022014;28;20047;-64
2023/08/26 00:20:40;;;;;;;15.27;9.48;;;;;;;;;;5020954;28;20347;-63
2023/08/26 00:23:08;;;;;;;17.05;9.80;;;;;;;;;;5022896;28;20468;-61
2023/08/26 00:25:34;;;;;;;14.75;9.43;;;;;;;;;;5028500;28;20053;-62
2023/08/26 00:28:02;;;;;;;16.75;9.60;;;;;;;;;;5020892;28;20124;-62
2023/08/26 00:30:29;;;;;;;15.50;9.95;;;;;;;;;;5020923;28;20045;-63
2023/08/26 00:32:56;;;;;;;15.20;8.85;;;;;;;;;;5022635;28;20521;-61
2023/08/26 00:35:22;;;;;;;14.13;8.80;;;;;;;;;;5020871;28;20528;-63
2023/08/26 00:37:51;;;;;;;15.40;8.13;;;;;;;;;;5019720;28;20047;-64
2023/08/26 00:40:18;;;;;;;14.75;9.40;;;;;;;;;;5019476;28;20806;-63
2023/08/26 00:42:45;;;;;;;17.00;9.35;;;;;;;;;;5022720;28;20044;-62
2023/08/26 00:45:12;;;;;;;14.15;9.38;;;;;;;;;;5020677;28;20189;-62
2023/08/26 00:47:39;;;;;;;15.75;9.52;;;;;;;;;;5020107;28;20111;-63
2023/08/26 00:50:06;;;;;;;14.40;9.25;;;;;;;;;;5021095;28;20037;-62
2023/08/26 00:52:33;;;;;;;17.10;9.88;;;;;;;;;;5020358;28;20044;-62
2023/08/26 00:54:59;;;;;;;15.50;9.10;;;;;;;;;;5022009;28;20041;-65
2023/08/26 00:57:26;;;;;;;13.68;9.13;;;;;;;;;;5010605;28;20044;-63
2023/08/26 00:59:53;;;;;;;14.93;8.52;;;;;;;;;;5008024;28;20033;-66
2023/08/26 01:02:39;;;;;;;15.90;9.52;;;;;;;;;;5002302;28;21421;-63
2023/08/26 01:05:07;;;;;;;17.90;10.10;;;;;;;;;;5002527;28;20144;-62
2023/08/26 01:07:34;;;;;;;14.48;9.00;;;;;;;;;;5000144;28;20037;-64
2023/08/26 01:10:00;;;;;;;16.75;9.52;;;;;;;;;;5003041;28;20502;-63
2023/08/26 01:12:34;;;;;;;15.20;9.23;;;;;;;;;;5002363;28;20500;-63
2023/08/26 01:15:11;;;;;;;16.85;9.15;;;;;;;;;;5003149;28;20587;-60
2023/08/26 01:17:38;;;;;;;14.55;8.90;;;;;;;;;;5004652;28;20079;-62
2023/08/26 01:20:05;;;;;;;12.40;7.95;;;;;;;;;;5002930;28;20037;-62
2023/08/26 01:22:34;;;;;;;13.35;8.48;;;;;;;;;;5002447;28;20037;-62
2023/08/26 01:25:01;;;;;;;13.60;8.57;;;;;;;;;;5001755;28;20069;-62
2023/08/26 01:27:28;;;;;;;16.40;8.85;;;;;;;;;;5001757;28;20393;-62
2023/08/26 01:29:56;;;;;;;17.80;9.13;;;;;;;;;;5002058;28;20306;-61
2023/08/26 01:37:33;;;;;;;16.52;9.32;;;;;;;;;;5002210;27;20532;-61
2023/08/26 01:40:05;;;;;;;13.90;9.18;;;;;;;;;;4999803;28;20046;-61
2023/08/26 01:42:32;;;;;;;15.90;9.00;;;;;;;;;;4997566;28;20084;-62
2023/08/26 02:09:55;;;;;;;14.30;8.32;;;;;;;;;;5001519;28;20436;-65
2023/08/26 02:12:21;;;;;;;16.00;8.35;;;;;;;;;;4988747;28;20049;-64
2023/08/26 02:14:48;;;;;;;16.27;8.38;;;;;;;;;;4987819;28;20038;-64
2023/08/26 02:17:15;;;;;;;19.15;9.38;;;;;;;;;;4986147;28;20565;-64
2023/08/26 02:19:41;;;;;;;16.60;8.98;;;;;;;;;;5002408;28;20208;-67
2023/08/26 02:22:09;;;;;;;13.85;8.90;;;;;;;;;;4986761;28;20131;-63
2023/08/26 02:24:35;;;;;;;14.55;8.88;;;;;;;;;;4996507;28;20041;-64
2023/08/26 02:27:02;;;;;;;15.10;8.90;;;;;;;;;;4999120;28;20034;-65
2023/08/26 02:29:30;;;;;;;16.13;8.55;;;;;;;;;;5016027;28;20320;-65
2023/08/26 02:31:57;;;;;;;14.20;8.68;;;;;;;;;;4987245;28;20578;-63
2023/08/26 02:34:25;;;;;;;13.73;8.63;;;;;;;;;;5018965;28;21625;-63
2023/08/26 02:36:52;;;;;;;13.73;8.35;;;;;;;;;;4984568;28;20120;-62
2023/08/26 02:39:19;;;;;;;14.05;8.20;;;;;;;;;;5009859;28;20054;-62
2023/08/26 02:41:46;;;;;;;15.90;9.00;;;;;;;;;;5005529;28;20043;-58
2023/08/26 02:44:12;;;;;;;16.95;8.38;;;;;;;;;;4996468;28;20805;-62
2023/08/26 02:46:39;;;;;;;15.07;8.52;;;;;;;;;;4985394;28;20088;-62
2023/08/26 02:49:06;;;;;;;14.90;8.63;;;;;;;;;;4988682;28;20437;-65
2023/08/26 02:51:32;;;;;;;15.68;9.07;;;;;;;;;;5005345;28;20041;-62
2023/08/26 02:53:59;;;;;;;14.07;8.82;;;;;;;;;;5022736;28;20722;-62
2023/08/26 02:56:26;;;;;;;15.32;8.93;;;;;;;;;;4988896;28;20157;-64
2023/08/26 02:58:53;;;;;;;17.55;8.85;;;;;;;;;;4987386;28;20161;-66
2023/08/26 03:01:20;;;;;;;19.42;9.38;;;;;;;;;;4987540;28;20046;-63
2023/08/26 03:03:46;;;;;;;16.92;9.82;;;;;;;;;;4998162;28;20873;-64
2023/08/26 03:06:13;;;;;;;15.18;9.15;;;;;;;;;;4991641;28;20038;-63
2023/08/26 03:08:40;;;;;;;19.83;10.10;;;;;;;;;;4986084;28;20061;-63
2023/08/26 03:11:09;;;;;;;17.65;10.40;;;;;;;;;;4986327;28;20152;-66
2023/08/26 03:13:36;;;;;;;17.95;10.45;;;;;;;;;;4992389;28;20514;-63
2023/08/26 03:16:09;;;;;;;18.85;10.35;;;;;;;;;;4986607;28;20049;-62
2023/08/26 03:18:36;;;;;;;17.13;9.75;;;;;;;;;;4988206;28;20091;-63
2023/08/26 03:21:07;;;;;;;16.95;9.23;;;;;;;;;;4974155;28;20042;-63
2023/08/26 03:23:34;;;;;;;18.35;10.43;;;;;;;;;;4973220;28;20049;-64
2023/08/26 03:26:01;;;;;;;15.93;10.45;;;;;;;;;;4973344;28;20093;-64
2023/08/26 03:28:28;;;;;;;16.67;10.27;;;;;;;;;;4972955;28;20066;-63
2023/08/26 03:30:54;;;;;;;19.08;11.13;;;;;;;;;;4974102;28;20062;-63
2023/08/26 03:33:21;;;;;;;17.05;10.25;;;;;;;;;;4973357;28;20431;-63
2023/08/26 03:35:48;;;;;;;18.35;10.65;;;;;;;;;;4974950;28;21686;-64
2023/08/26 03:38:14;;;;;;;23.75;11.23;;;;;;;;;;4977358;28;20109;-62
2023/08/26 03:40:41;;;;;;;19.60;11.70;;;;;;;;;;4971190;28;20692;-62
2023/08/26 03:43:07;;;;;;;21.33;11.55;;;;;;;;;;4974128;28;20125;-60
2023/08/26 03:45:34;;;;;;;21.48;12.38;;;;;;;;;;4971041;28;20042;-64
2023/08/26 03:48:01;;;;;;;25.33;12.40;;;;;;;;;;4980606;28;20057;-65
2023/08/26 03:50:27;;;;;;;20.73;11.80;;;;;;;;;;4971920;28;20444;-64
2023/08/26 03:52:54;;;;;;;20.63;11.40;;;;;;;;;;4973069;28;20069;-65
2023/08/26 03:55:20;;;;;;;26.00;12.20;;;;;;;;;;4980691;28;20058;-64
2023/08/26 03:57:47;;;;;;;27.52;12.95;;;;;;;;;;4973316;28;20056;-63
2023/08/26 04:00:14;;;;;;;24.15;12.45;;;;;;;;;;4972508;28;21278;-63
2023/08/26 04:02:41;;;;;;;25.90;11.77;;;;;;;;;;4975468;28;20052;-62
2023/08/26 04:05:09;;;;;;;25.63;12.43;;;;;;;;;;4971976;28;20042;-64
2023/08/26 04:07:36;;;;;;;23.02;12.27;;;;;;;;;;4974794;28;20129;-63
2023/08/26 04:10:03;;;;;;;20.83;12.00;;;;;;;;;;4971163;28;20231;-64
2023/08/26 04:12:30;;;;;;;23.73;11.93;;;;;;;;;;4974463;28;20053;-65
2023/08/26 04:14:56;;;;;;;25.52;12.82;;;;;;;;;;4970676;28;20050;-64
2023/08/26 04:17:23;;;;;;;26.65;13.90;;;;;;;;;;4972190;28;20787;-63
2023/08/26 04:19:50;;;;;;;18.88;11.73;;;;;;;;;;4973449;28;20050;-64
2023/08/26 04:22:17;;;;;;;21.02;12.55;;;;;;;;;;4972120;28;20467;-63
2023/08/26 04:24:43;;;;;;;28.67;13.20;;;;;;;;;;4967964;28;20042;-66
2023/08/26 04:27:10;;;;;;;20.45;11.95;;;;;;;;;;4972796;28;20171;-64
2023/08/26 04:29:36;;;;;;;20.17;11.93;;;;;;;;;;4971492;28;20054;-64
2023/08/26 04:32:03;;;;;;;21.73;11.55;;;;;;;;;;4971025;28;21878;-65
2023/08/26 04:34:29;;;;;;;20.52;11.75;;;;;;;;;;4970743;28;20084;-63
2023/08/26 04:36:56;;;;;;;23.38;12.45;;;;;;;;;;4970710;28;20451;-62
2023/08/26 04:39:23;;;;;;;21.52;11.93;;;;;;;;;;4970863;28;20172;-64
2023/08/26 04:41:49;;;;;;;21.70;12.43;;;;;;;;;;4972603;28;20045;-63
2023/08/26 04:44:19;;;;;;;21.80;11.30;;;;;;;;;;4971665;28;20110;-64
2023/08/26 04:46:46;;;;;;;17.95;10.65;;;;;;;;;;4970359;28;20155;-64
2023/08/26 04:49:13;;;;;;;21.20;10.93;;;;;;;;;;4971590;28;20700;-64
2023/08/26 04:51:40;;;;;;;23.88;11.02;;;;;;;;;;4971873;28;20401;-63
2023/08/26 04:54:06;;;;;;;20.40;11.13;;;;;;;;;;4971956;28;20042;-64
2023/08/26 04:56:33;;;;;;;22.27;11.85;;;;;;;;;;4970830;28;20746;-64
2023/08/26 04:58:59;;;;;;;20.65;10.75;;;;;;;;;;4977883;28;20041;-63
2023/08/26 05:01:27;;;;;;;19.50;11.23;;;;;;;;;;4971479;28;20045;-65
2023/08/26 05:03:54;;;;;;;22.00;10.98;;;;;;;;;;4973614;28;20070;-64
2023/08/26 05:06:20;;;;;;;22.63;12.20;;;;;;;;;;4971137;28;21414;-67
2023/08/26 05:08:47;;;;;;;20.88;12.05;;;;;;;;;;4971982;28;20045;-63
2023/08/26 05:11:14;;;;;;;24.40;11.60;;;;;;;;;;4970879;28;22087;-65
2023/08/26 05:13:40;;;;;;;19.98;11.52;;;;;;;;;;4972065;28;20057;-65
2023/08/26 05:16:07;;;;;;;22.90;11.48;;;;;;;;;;4971390;28;20049;-64
2023/08/26 05:18:53;;;;;;;24.17;11.07;;;;;;;;;;4972790;28;20574;-65
2023/08/26 05:21:20;;;;;;;29.05;11.57;;;;;;;;;;5003157;28;20072;-65
2023/08/26 05:23:46;;;;;;;21.45;11.43;;;;;;;;;;5006201;28;20060;-65
2023/08/26 05:26:13;;;;;;;19.05;10.90;;;;;;;;;;5006165;28;20037;-63
2023/08/26 05:28:40;;;;;;;20.10;11.05;;;;;;;;;;5022705;28;20177;-65
2023/08/26 05:31:06;;;;;;;25.70;11.18;;;;;;;;;;4991809;28;20041;-64
2023/08/26 05:33:33;;;;;;;18.45;10.93;;;;;;;;;;5014346;28;20063;-62
2023/08/26 05:36:00;;;;;;;19.10;11.05;;;;;;;;;;5006343;28;20076;-65
2023/08/26 05:38:26;;;;;;;24.25;11.10;;;;;;;;;;5007310;28;20045;-65
2023/08/26 05:40:53;;;;;;;20.42;11.15;;;;;;;;;;5007666;28;20033;-64
2023/08/26 05:43:20;;;;;;;20.65;10.77;;;;;;;;;;5005408;28;20844;-64
2023/08/26 05:45:46;;;;;;;21.58;10.73;;;;;;;;;;4996732;28;21735;-64
2023/08/26 05:48:14;;;;;;;19.02;10.38;;;;;;;;;;5006235;28;20096;-63
2023/08/26 05:50:41;;;;;;;18.73;10.50;;;;;;;;;;5005035;28;20151;-64
2023/08/26 05:53:07;;;;;;;19.45;10.60;;;;;;;;;;4978213;28;20593;-63
2023/08/26 05:55:34;;;;;;;22.33;10.23;;;;;;;;;;4970427;28;20042;-63
2023/08/26 05:58:00;;;;;;;20.38;10.77;;;;;;;;;;4979724;28;20487;-64
2023/08/26 06:00:28;;;;;;;18.20;10.07;;;;;;;;;;4969723;28;20437;-64
2023/08/26 06:02:55;;;;;;;23.48;11.07;;;;;;;;;;4971535;28;20498;-64
2023/08/26 06:05:22;;;;;;;19.23;10.35;;;;;;;;;;4970534;28;20069;-63
2023/08/26 06:07:50;;;;;;;23.30;11.25;;;;;;;;;;4978243;28;20151;-64
2023/08/26 06:10:17;;;;;;;26.13;11.80;;;;;;;;;;4985152;28;20478;-63
2023/08/26 06:12:44;;;;;;;20.08;11.48;;;;;;;;;;4975486;28;20049;-63
2023/08/26 06:15:10;;;;;;;20.17;11.55;;;;;;;;;;4973771;28;20061;-63
2023/08/26 06:17:41;;;;;;;21.52;11.15;;;;;;;;;;4972561;28;20730;-63
2023/08/26 06:20:08;;;;;;;25.05;10.80;;;;;;;;;;4972061;28;20116;-63
2023/08/26 06:22:35;;;;;;;20.92;11.23;;;;;;;;;;4970639;28;20072;-64
2023/08/26 06:25:01;;;;;;;19.00;11.23;;;;;;;;;;4979089;28;20069;-64
2023/08/26 06:27:28;;;;;;;22.10;10.85;;;;;;;;;;4971730;28;20442;-65
2023/08/26 06:29:55;;;;;;;19.23;10.95;;;;;;;;;;4971838;28;20303;-65
2023/08/26 06:32:22;;;;;;;21.85;11.35;;;;;;;;;;4973614;28;20042;-70
2023/08/26 06:34:48;;;;;;;21.67;10.68;;;;;;;;;;4972048;28;20065;-64
2023/08/26 06:37:15;;;;;;;25.15;11.85;;;;;;;;;;4971289;28;20042;-65
2023/08/26 06:39:42;;;;;;;20.02;10.70;;;;;;;;;;4969034;28;20053;-65
2023/08/26 06:42:08;;;;;;;22.67;11.68;;;;;;;;;;4971852;28;20042;-64
2023/08/26 06:44:35;;;;;;;22.40;11.13;;;;;;;;;;4970066;28;20644;-65
2023/08/26 06:47:02;;;;;;;18.27;10.27;;;;;;;;;;4971600;28;20045;-64
2023/08/26 06:49:28;;;;;;;18.35;10.27;;;;;;;;;;4983085;28;20518;-64
2023/08/26 06:51:55;;;;;;;17.70;10.63;;;;;;;;;;4990643;28;20049;-63
2023/08/26 06:54:21;;;;;;;21.77;10.98;;;;;;;;;;4975165;28;20054;-65
2023/08/26 06:56:48;;;;;;;21.55;11.70;;;;;;;;;;4974625;28;20038;-63
2023/08/26 06:59:14;;;;;;;21.77;11.13;;;;;;;;;;4975099;28;20096;-64
2023/08/26 07:01:41;;;;;;;22.02;11.43;;;;;;;;;;4983967;28;20203;-64
2023/08/26 07:04:08;;;;;;;20.10;11.60;;;;;;;;;;4984538;28;20068;-63
2023/08/26 07:06:36;;;;;;;22.67;12.18;;;;;;;;;;4982275;28;20049;-64
2023/08/26 07:09:06;;;;;;;21.77;11.18;;;;;;;;;;4985598;28;20050;-64
2023/08/26 07:11:33;;;;;;;28.90;11.18;;;;;;;;;;4972853;28;20566;-64
2023/08/26 07:13:59;;;;;;;19.48;10.32;;;;;;;;;;4973195;28;20656;-64
2023/08/26 07:16:27;;;;;;;20.90;10.88;;;;;;;;;;4972981;28;20038;-64
2023/08/26 07:18:54;;;;;;;18.80;11.43;;;;;;;;;;4973539;28;20277;-63
2023/08/26 07:21:20;;;;;;;20.67;10.65;;;;;;;;;;4973560;28;20046;-63
2023/08/26 07:24:07;;;;;;;25.25;11.18;;;;;;;;;;4950903;28;20046;-64
2023/08/26 07:26:34;;;;;;;22.92;10.70;;;;;;;;;;4950736;28;20034;-63
2023/08/26 07:29:02;;;;;;;20.02;10.70;;;;;;;;;;4951403;28;20054;-64
2023/08/26 07:31:28;;;;;;;19.63;10.52;;;;;;;;;;4950422;28;20042;-64
2023/08/26 07:33:55;;;;;;;24.55;10.88;;;;;;;;;;4950739;28;20077;-64
2023/08/26 07:36:22;;;;;;;22.83;11.23;;;;;;;;;;4950448;28;20054;-64
2023/08/26 07:38:48;;;;;;;25.70;11.43;;;;;;;;;;4951870;28;20046;-64
2023/08/26 07:41:15;;;;;;;22.60;10.63;;;;;;;;;;4965996;28;20613;-64
2023/08/26 07:43:42;;;;;;;25.02;10.73;;;;;;;;;;4950748;28;20046;-63
2023/08/26 07:46:09;;;;;;;21.42;10.63;;;;;;;;;;4950442;28;20787;-64
2023/08/26 07:48:35;;;;;;;20.95;10.63;;;;;;;;;;4949933;28;20062;-63
2023/08/26 07:51:02;;;;;;;19.35;10.57;;;;;;;;;;4951311;28;20133;-63
2023/08/26 07:53:28;;;;;;;20.20;11.05;;;;;;;;;;4950258;28;20121;-63
2023/08/26 07:55:55;;;;;;;18.80;10.13;;;;;;;;;;4949339;28;20069;-63
2023/08/26 07:58:22;;;;;;;16.92;10.30;;;;;;;;;;4950553;28;20038;-64
2023/08/26 08:00:48;;;;;;;21.77;11.07;;;;;;;;;;4953387;28;20591;-64
2023/08/26 08:03:16;;;;;;;22.55;11.15;;;;;;;;;;4992279;28;20045;-64
2023/08/26 08:05:42;;;;;;;21.83;10.82;;;;;;;;;;4974233;28;20050;-62
2023/08/26 08:08:09;;;;;;;22.23;11.18;;;;;;;;;;4975353;28;20100;-61
2023/08/26 08:10:55;;;;;;;19.10;10.70;;;;;;;;;;5029085;28;20458;-64
2023/08/26 08:13:22;;;;;;;19.00;10.85;;;;;;;;;;5030763;28;20144;-63
2023/08/26 08:15:49;;;;;;;21.25;10.85;;;;;;;;;;5031097;28;20091;-63
2023/08/26 08:18:15;;;;;;;21.20;11.25;;;;;;;;;;5030888;28;20037;-65
2023/08/26 08:20:42;;;;;;;22.13;11.65;;;;;;;;;;5031912;28;20447;-63
2023/08/26 08:23:09;;;;;;;22.27;10.80;;;;;;;;;;5030356;28;20032;-64
2023/08/26 08:25:35;;;;;;;18.77;10.23;;;;;;;;;;5030088;28;20513;-64
2023/08/26 08:28:02;;;;;;;22.20;10.77;;;;;;;;;;5030645;28;20044;-64
2023/08/26 08:30:29;;;;;;;18.85;10.80;;;;;;;;;;5027857;28;20044;-63
2023/08/26 08:32:55;;;;;;;23.42;11.77;;;;;;;;;;5030691;28;21447;-63
2023/08/26 08:35:22;;;;;;;23.48;11.65;;;;;;;;;;5030612;28;20063;-62
2023/08/26 08:37:49;;;;;;;23.40;11.55;;;;;;;;;;5031765;28;20139;-63
2023/08/26 08:40:15;;;;;;;21.83;10.20;;;;;;;;;;5030431;28;20037;-63
2023/08/26 08:42:43;;;;;;;22.42;12.00;;;;;;;;;;4985797;28;20054;-62
2023/08/26 08:45:10;;;;;;;20.58;10.55;;;;;;;;;;4973993;28;20050;-65
2023/08/26 08:47:37;;;;;;;17.52;10.80;;;;;;;;;;4974559;28;20092;-63
2023/08/26 08:50:04;;;;;;;20.90;10.23;;;;;;;;;;4975157;28;20077;-63
2023/08/26 08:52:31;;;;;;;20.42;10.43;;;;;;;;;;4974637;28;20120;-63
2023/08/26 08:54:58;;;;;;;22.23;10.57;;;;;;;;;;4974497;28;20175;-64
2023/08/26 08:57:29;;;;;;;21.67;11.32;;;;;;;;;;4974166;28;20103;-65
2023/08/26 08:59:58;;;;;;;24.17;10.05;;;;;;;;;;4974868;28;20690;-62
2023/08/26 09:02:30;;;;;;;22.77;11.38;;;;;;;;;;4973927;28;20520;-61
2023/08/26 09:04:57;;;;;;;19.67;11.20;;;;;;;;;;4974131;28;20038;-62
2023/08/26 09:07:25;;;;;;;20.17;11.30;;;;;;;;;;4975389;28;20481;-65
2023/08/26 09:09:53;;;;;;;22.50;10.60;;;;;;;;;;4973964;28;20538;-62
2023/08/26 09:12:19;;;;;;;22.00;11.55;;;;;;;;;;4975483;28;21014;-62
2023/08/26 09:14:46;;;;;;;23.20;11.35;;;;;;;;;;4973404;28;20119;-62
2023/08/26 09:17:19;;;;;;;18.85;10.75;;;;;;;;;;4974838;28;20034;-61
2023/08/26 09:19:56;;;;;;;20.52;11.30;;;;;;;;;;4975046;28;20069;-61
2023/08/26 09:22:32;;;;;;;22.17;11.23;;;;;;;;;;4973328;28;20917;-62
2023/08/26 09:25:00;;;;;;;22.23;11.05;;;;;;;;;;4973483;28;20125;-62
2023/08/26 09:27:27;;;;;;;21.35;11.77;;;;;;;;;;4972733;28;20371;-64
2023/08/26 09:29:54;;;;;;;21.27;10.90;;;;;;;;;;4974770;28;20037;-63
2023/08/26 09:32:33;;;;;;;19.48;11.65;;;;;;;;;;4973019;28;20122;-66
2023/08/26 09:35:09;;;;;;;23.73;11.88;;;;;;;;;;4972751;28;20648;-64
2023/08/26 09:37:36;;;;;;;19.70;11.02;;;;;;;;;;4973529;28;20037;-63
2023/08/26 09:40:03;;;;;;;22.00;11.30;;;;;;;;;;4973004;28;20223;-63
2023/08/26 09:42:30;;;;;;;20.60;10.77;;;;;;;;;;4972998;28;21754;-61
2023/08/26 09:44:57;;;;;;;22.80;11.75;;;;;;;;;;4973454;28;20041;-63
2023/08/26 09:47:30;;;;;;;25.13;11.70;;;;;;;;;;4972784;28;20487;-62
2023/08/26 09:49:56;;;;;;;22.75;11.50;;;;;;;;;;4973771;28;20125;-58
2023/08/26 09:52:24;;;;;;;20.10;10.82;;;;;;;;;;4972457;28;20045;-63
2023/08/26 09:54:52;;;;;;;22.77;10.95;;;;;;;;;;4973399;28;20454;-62
2023/08/26 09:57:18;;;;;;;17.95;10.80;;;;;;;;;;4972842;28;20537;-66
2023/08/26 09:59:45;;;;;;;20.40;10.93;;;;;;;;;;4972787;28;20157;-65
2023/08/26 10:02:19;;;;;;;20.10;11.23;;;;;;;;;;4973929;28;20168;-64
2023/08/26 10:04:46;;;;;;;18.60;11.40;;;;;;;;;;4974057;28;20041;-64
2023/08/26 10:07:13;;;;;;;20.02;10.90;;;;;;;;;;4973824;28;20683;-62
2023/08/26 10:09:45;;;;;;;18.70;10.55;;;;;;;;;;4971857;28;20068;-62
2023/08/26 10:12:17;;;;;;;25.73;11.75;;;;;;;;;;4972853;28;20069;-62
2023/08/26 10:15:03;;;;;;;19.98;11.70;;;;;;;;;;4972568;28;20564;-62
2023/08/26 10:17:31;;;;;;;24.63;10.60;;;;;;;;;;5027679;28;20600;-63
2023/08/26 10:19:58;;;;;;;23.50;11.55;;;;;;;;;;5028549;28;20041;-63
2023/08/26 10:22:25;;;;;;;23.52;11.52;;;;;;;;;;5026252;28;20094;-65
2023/08/26 10:24:53;;;;;;;22.70;10.98;;;;;;;;;;5011359;28;20029;-64
2023/08/26 10:27:20;;;;;;;19.77;10.90;;;;;;;;;;5027999;28;20067;-63
2023/08/26 10:29:47;;;;;;;21.52;11.30;;;;;;;;;;5011560;28;20582;-63
2023/08/26 10:32:23;;;;;;;24.05;12.13;;;;;;;;;;5030369;28;20025;-63
2023/08/26 10:34:55;;;;;;;21.55;11.32;;;;;;;;;;5032398;28;20155;-61
2023/08/26 10:37:28;;;;;;;22.13;11.57;;;;;;;;;;5030549;28;20131;-64
2023/08/26 10:39:56;;;;;;;23.35;12.60;;;;;;;;;;5030257;28;20370;-64
2023/08/26 10:42:23;;;;;;;24.48;12.23;;;;;;;;;;5030445;28;20080;-61
2023/08/26 10:44:59;;;;;;;26.00;12.43;;;;;;;;;;5030992;28;20504;-63
2023/08/26 10:47:39;;;;;;;22.77;11.63;;;;;;;;;;5030194;28;20036;-63
2023/08/26 10:50:15;;;;;;;25.85;11.95;;;;;;;;;;5030085;28;20143;-63
2023/08/26 10:52:45;;;;;;;26.10;11.93;;;;;;;;;;5030318;28;20175;-61
2023/08/26 10:55:13;;;;;;;26.65;13.75;;;;;;;;;;4998660;28;20398;-68
2023/08/26 10:58:00;;;;;;;23.27;12.48;;;;;;;;;;4977452;28;20030;-63
2023/08/26 11:00:26;;;;;;;30.33;13.38;;;;;;;;;;4975879;28;20045;-62
2023/08/26 11:02:57;;;;;;;23.02;12.43;;;;;;;;;;4977448;28;20552;-61
2023/08/26 11:05:24;;;;;;;23.65;12.32;;;;;;;;;;4977361;28;20041;-62
2023/08/26 11:07:51;;;;;;;23.58;12.50;;;;;;;;;;4974707;28;20046;-62
2023/08/26 11:10:28;;;;;;;22.50;11.68;;;;;;;;;;4976028;28;20081;-61
2023/08/26 11:12:54;;;;;;;25.52;12.43;;;;;;;;;;4975143;28;20030;-61
2023/08/26 11:15:21;;;;;;;19.67;11.38;;;;;;;;;;4975665;28;20109;-62
2023/08/26 11:17:51;;;;;;;21.98;12.65;;;;;;;;;;4973574;28;20494;-63
2023/08/26 11:20:18;;;;;;;20.33;11.85;;;;;;;;;;4976173;28;20035;-62
2023/08/26 11:22:47;;;;;;;21.83;11.80;;;;;;;;;;4975821;28;20347;-60
2023/08/26 11:25:14;;;;;;;25.55;12.52;;;;;;;;;;4976780;28;20034;-62
2023/08/26 11:27:41;;;;;;;22.75;11.50;;;;;;;;;;4975233;28;20045;-63
2023/08/26 11:30:08;;;;;;;25.60;12.35;;;;;;;;;;4975164;28;20034;-63
2023/08/26 11:32:38;;;;;;;30.42;13.65;;;;;;;;;;4975936;28;20593;-63
2023/08/26 11:35:10;;;;;;;24.20;12.80;;;;;;;;;;4976216;28;22477;-62
2023/08/26 11:37:48;;;;;;;25.52;13.05;;;;;;;;;;4975183;28;20505;-63
2023/08/26 11:40:15;;;;;;;23.88;13.48;;;;;;;;;;4975317;28;20026;-63
2023/08/26 11:42:43;;;;;;;25.75;13.15;;;;;;;;;;4975210;28;20030;-64
2023/08/26 11:45:11;;;;;;;26.83;13.35;;;;;;;;;;4974775;28;20053;-64
2023/08/26 11:47:38;;;;;;;26.60;13.15;;;;;;;;;;4974684;28;20080;-61
2023/08/26 11:50:04;;;;;;;26.05;12.88;;;;;;;;;;4975066;28;20042;-63
2023/08/26 11:52:33;;;;;;;22.75;12.60;;;;;;;;;;4975828;28;20034;-65
2023/08/26 11:55:00;;;;;;;25.95;12.57;;;;;;;;;;4989950;28;20041;-63
2023/08/26 11:57:27;;;;;;;23.15;12.77;;;;;;;;;;4975169;28;20263;-63
2023/08/26 11:59:54;;;;;;;27.05;13.82;;;;;;;;;;4976235;28;20022;-63
2023/08/26 12:02:21;;;;;;;27.13;14.15;;;;;;;;;;4980845;28;20037;-63
2023/08/26 12:04:56;;;;;;;28.23;14.00;;;;;;;;;;4980756;28;20053;-63
2023/08/26 12:07:22;;;;;;;22.70;13.30;;;;;;;;;;4980668;28;20045;-62
2023/08/26 12:09:49;;;;;;;25.90;13.48;;;;;;;;;;4980809;28;20057;-61
2023/08/26 12:12:22;;;;;;;22.27;12.63;;;;;;;;;;4980364;28;20034;-62
2023/08/26 12:14:49;;;;;;;23.23;12.70;;;;;;;;;;4976967;28;20398;-64
2023/08/26 12:17:16;;;;;;;22.35;11.90;;;;;;;;;;4974776;28;21034;-61
2023/08/26 12:19:43;;;;;;;22.20;12.73;;;;;;;;;;4976129;28;20074;-63
2023/08/26 12:22:10;;;;;;;23.02;12.27;;;;;;;;;;5006772;28;20034;-63
2023/08/26 12:24:37;;;;;;;23.55;12.88;;;;;;;;;;4974895;28;20026;-63
2023/08/26 12:27:11;;;;;;;22.77;12.68;;;;;;;;;;4973341;28;20030;-64
2023/08/26 12:29:38;;;;;;;23.25;13.10;;;;;;;;;;4989694;28;20048;-61
2023/08/26 12:32:05;;;;;;;27.30;13.02;;;;;;;;;;4974458;28;20034;-63
2023/08/26 12:34:34;;;;;;;22.75;12.38;;;;;;;;;;4972850;28;20049;-63
2023/08/26 12:37:00;;;;;;;22.08;12.35;;;;;;;;;;4974273;28;21664;-63
2023/08/26 12:39:27;;;;;;;22.63;11.98;;;;;;;;;;4976663;28;20085;-65
2023/08/26 12:41:55;;;;;;;24.17;12.70;;;;;;;;;;4973586;28;20018;-63
2023/08/26 12:44:23;;;;;;;27.23;12.65;;;;;;;;;;4989541;28;20034;-63
2023/08/26 12:46:50;;;;;;;31.50;13.65;;;;;;;;;;4973591;28;20156;-62
2023/08/26 12:49:17;;;;;;;21.65;12.77;;;;;;;;;;4973994;28;20038;-63
2023/08/26 12:51:43;;;;;;;22.38;12.40;;;;;;;;;;4975231;28;20035;-62
2023/08/26 12:54:10;;;;;;;25.65;12.10;;;;;;;;;;4973913;28;20034;-63
2023/08/26 12:56:37;;;;;;;25.10;12.00;;;;;;;;;;4974378;28;21248;-63
2023/08/26 12:59:04;;;;;;;25.60;12.80;;;;;;;;;;4973689;28;20419;-62
2023/08/26 13:01:30;;;;;;;24.75;12.07;;;;;;;;;;4975184;28;20042;-63
2023/08/26 13:03:57;;;;;;;27.75;13.70;;;;;;;;;;4974959;28;20030;-63
2023/08/26 13:06:24;;;;;;;25.85;12.35;;;;;;;;;;4974273;28;20049;-63
2023/08/26 13:08:50;;;;;;;27.33;12.52;;;;;;;;;;4990391;28;20815;-64
2023/08/26 13:11:17;;;;;;;27.83;13.15;;;;;;;;;;4975406;28;20104;-63
2023/08/26 13:13:43;;;;;;;25.83;12.15;;;;;;;;;;4974073;28;20045;-62
2023/08/26 13:16:10;;;;;;;22.55;12.32;;;;;;;;;;4987984;28;20558;-64
2023/08/26 13:18:38;;;;;;;21.85;12.52;;;;;;;;;;4971190;28;20065;-64
2023/08/26 13:31:01;;;;;;;19.95;11.52;;;;;;;;;;5020886;28;20842;-64
2023/08/26 14:46:45;;;;;;;25.45;10.55;;;;;;;;;;5068484;27;20438;-64
2023/08/26 14:49:15;;;;;;;24.60;9.60;;;;;;;;;;5053226;28;20123;-62
2023/08/26 14:51:41;;;;;;;23.55;10.38;;;;;;;;;;5052983;28;20032;-62
2023/08/26 14:54:08;;;;;;;23.98;10.43;;;;;;;;;;5052659;28;20036;-62
2023/08/26 14:56:34;;;;;;;15.98;9.95;;;;;;;;;;5067649;28;20052;-63
2023/08/26 14:59:01;;;;;;;18.98;9.20;;;;;;;;;;5052674;28;20070;-63
2023/08/26 15:01:28;;;;;;;17.77;9.65;;;;;;;;;;5055954;28;20771;-62
2023/08/26 15:03:54;;;;;;;18.27;9.10;;;;;;;;;;5056870;28;20955;-63
2023/08/26 15:06:21;;;;;;;16.15;9.55;;;;;;;;;;5054577;28;20054;-67
2023/08/26 15:08:47;;;;;;;17.83;8.82;;;;;;;;;;5055021;28;20350;-60
2023/08/26 15:11:15;;;;;;;17.90;8.93;;;;;;;;;;5056364;28;20025;-63
2023/08/26 15:13:42;;;;;;;15.82;9.23;;;;;;;;;;5055338;28;20579;-61
2023/08/26 15:16:09;;;;;;;16.30;9.38;;;;;;;;;;5056911;28;20658;-63
2023/08/26 15:18:36;;;;;;;15.27;8.38;;;;;;;;;;5056171;28;20654;-62
2023/08/26 15:21:03;;;;;;;17.13;9.63;;;;;;;;;;5066684;28;20028;-64
2023/08/26 15:23:30;;;;;;;15.80;8.70;;;;;;;;;;5056050;28;20101;-64
2023/08/26 15:25:57;;;;;;;16.58;9.15;;;;;;;;;;5055555;28;20079;-64
2023/08/26 15:28:23;;;;;;;14.82;8.38;;;;;;;;;;5054772;28;20254;-61
2023/08/26 15:30:51;;;;;;;14.10;9.18;;;;;;;;;;5053947;28;20082;-63
2023/08/26 15:33:18;;;;;;;16.85;9.52;;;;;;;;;;5054140;28;20445;-63
2023/08/26 15:35:48;;;;;;;16.10;9.15;;;;;;;;;;5053427;28;20441;-62
2023/08/26 15:38:15;;;;;;;13.20;7.95;;;;;;;;;;5053044;28;20655;-63
2023/08/26 15:40:41;;;;;;;13.73;8.85;;;;;;;;;;5052931;28;20493;-63
2023/08/26 15:43:08;;;;;;;16.15;8.55;;;;;;;;;;5053495;28;20489;-63
2023/08/26 15:45:35;;;;;;;14.52;8.55;;;;;;;;;;5053716;28;20618;-64
2023/08/26 15:48:01;;;;;;;16.50;8.52;;;;;;;;;;5063440;28;20240;-63
2023/08/26 15:50:28;;;;;;;14.10;8.32;;;;;;;;;;5082663;28;20085;-64
2023/08/26 15:52:56;;;;;;;14.60;8.35;;;;;;;;;;5083232;28;20082;-63
2023/08/26 15:55:22;;;;;;;11.80;8.20;;;;;;;;;;5069041;28;20028;-64
2023/08/26 15:57:49;;;;;;;12.57;7.93;;;;;;;;;;5043455;28;20147;-64
2023/08/26 16:00:16;;;;;;;13.63;7.88;;;;;;;;;;5041447;28;20432;-63
2023/08/26 16:02:43;;;;;;;12.35;8.00;;;;;;;;;;5042539;28;20072;-63
2023/08/26 16:05:10;;;;;;;13.10;8.55;;;;;;;;;;5042929;28;20543;-63
2023/08/26 16:07:37;;;;;;;12.63;8.23;;;;;;;;;;5042885;28;20047;-62
2023/08/26 16:10:04;;;;;;;11.90;8.02;;;;;;;;;;5043076;28;20047;-63
2023/08/26 16:12:31;;;;;;;13.18;8.23;;;;;;;;;;5041137;28;20032;-63
2023/08/26 16:14:58;;;;;;;11.82;7.72;;;;;;;;;;5039605;28;20076;-63
2023/08/26 16:17:25;;;;;;;12.55;7.93;;;;;;;;;;5038068;28;20038;-63